Time;durP1;ratioP1;P1;durP2;ratioP2;P2;SDS_P1;SDS_P2;PMS_P1;PMS_P2;Temp;Humidity;BMP_temperature;BMP_pressure;BME280_temperature;BME280_humidity;BME280_pressure;Samples;Min_cycle;Max_cycle;Signal;HPM_P1;HPM_P2
2022/07/18 00:02:20;;;;;;;3.60;2.97;;;;;;;;;;5016094;28;20958;-66
2022/07/18 00:04:46;;;;;;;4.30;2.63;;;;;;;;;;5016105;28;20463;-65
2022/07/18 00:07:13;;;;;;;3.10;2.83;;;;;;;;;;5016063;28;20427;-66
2022/07/18 00:09:39;;;;;;;7.10;3.20;;;;;;;;;;5016056;28;20405;-67
2022/07/18 00:12:06;;;;;;;3.60;3.20;;;;;;;;;;5016005;28;20445;-66
2022/07/18 00:14:32;;;;;;;7.90;3.03;;;;;;;;;;5015872;28;20468;-65
2022/07/18 00:16:59;;;;;;;3.50;2.90;;;;;;;;;;5015805;28;20529;-68
2022/07/18 00:19:25;;;;;;;3.40;3.10;;;;;;;;;;5015788;28;20412;-68
2022/07/18 00:21:51;;;;;;;5.57;2.70;;;;;;;;;;5015783;28;20425;-67
2022/07/18 00:24:17;;;;;;;6.30;3.40;;;;;;;;;;5015751;28;20430;-66
2022/07/18 00:26:43;;;;;;;3.27;3.03;;;;;;;;;;5015644;28;20851;-65
2022/07/18 00:29:09;;;;;;;24.57;3.73;;;;;;;;;;5015658;28;20414;-66
2022/07/18 00:31:35;;;;;;;3.30;2.90;;;;;;;;;;5015466;28;20513;-67
2022/07/18 00:34:01;;;;;;;3.20;3.00;;;;;;;;;;5015557;28;20501;-67
2022/07/18 00:36:29;;;;;;;2.97;2.90;;;;;;;;;;5015073;28;20472;-68
2022/07/18 00:38:55;;;;;;;3.93;3.40;;;;;;;;;;5015268;28;20866;-68
2022/07/18 00:41:21;;;;;;;3.23;2.60;;;;;;;;;;5015295;28;20785;-66
2022/07/18 00:43:47;;;;;;;5.50;3.30;;;;;;;;;;5015293;28;20422;-67
2022/07/18 00:46:13;;;;;;;3.10;2.90;;;;;;;;;;5015237;28;20525;-68
2022/07/18 00:48:39;;;;;;;3.30;3.20;;;;;;;;;;5015192;28;20478;-67
2022/07/18 00:51:06;;;;;;;4.67;3.53;;;;;;;;;;5015201;28;20414;-68
2022/07/18 00:53:32;;;;;;;4.60;3.30;;;;;;;;;;5015138;28;20453;-67
2022/07/18 00:55:58;;;;;;;8.63;3.70;;;;;;;;;;5014800;28;20475;-67
2022/07/18 00:58:24;;;;;;;4.60;2.90;;;;;;;;;;5015086;28;20410;-66
2022/07/18 01:03:34;;;;;;;4.40;2.80;;;;;;;;;;5014955;28;20409;-67
2022/07/18 01:06:00;;;;;;;3.17;2.80;;;;;;;;;;5014863;28;20900;-67
2022/07/18 01:08:26;;;;;;;9.40;3.10;;;;;;;;;;5014967;28;20408;-67
2022/07/18 01:10:54;;;;;;;3.60;3.30;;;;;;;;;;5015054;28;20825;-66
2022/07/18 01:13:20;;;;;;;4.13;3.43;;;;;;;;;;5014817;28;20421;-66
2022/07/18 01:15:46;;;;;;;4.10;3.70;;;;;;;;;;5014654;28;20969;-66
2022/07/18 01:18:12;;;;;;;6.97;2.77;;;;;;;;;;5015060;28;20496;-66
2022/07/18 01:20:38;;;;;;;3.33;3.03;;;;;;;;;;5014739;28;20407;-67
2022/07/18 01:23:04;;;;;;;3.20;3.10;;;;;;;;;;5014631;28;20462;-67
2022/07/18 01:25:30;;;;;;;7.80;3.50;;;;;;;;;;5014460;28;20396;-68
2022/07/18 01:27:57;;;;;;;3.80;3.63;;;;;;;;;;5014423;28;20795;-66
2022/07/18 01:30:23;;;;;;;3.20;3.20;;;;;;;;;;5014458;28;20404;-66
2022/07/18 01:33:00;;;;;;;3.47;3.17;;;;;;;;;;5014315;28;20794;-66
2022/07/18 01:35:26;;;;;;;3.83;3.00;;;;;;;;;;5014358;28;20411;-66
2022/07/18 01:37:54;;;;;;;3.23;3.07;;;;;;;;;;5014266;28;20420;-67
2022/07/18 01:40:20;;;;;;;3.23;3.03;;;;;;;;;;4996626;28;20419;-67
2022/07/18 01:42:46;;;;;;;3.33;3.03;;;;;;;;;;5014330;28;20432;-67
2022/07/18 01:45:12;;;;;;;5.33;3.20;;;;;;;;;;5014141;28;20562;-67
2022/07/18 01:47:38;;;;;;;3.50;3.30;;;;;;;;;;5013434;28;20572;-65
2022/07/18 01:50:05;;;;;;;6.93;3.70;;;;;;;;;;5014079;28;20420;-66
2022/07/18 01:52:31;;;;;;;4.40;3.30;;;;;;;;;;5014064;28;20419;-68
2022/07/18 01:54:57;;;;;;;3.83;3.63;;;;;;;;;;5014052;28;20766;-67
2022/07/18 01:57:23;;;;;;;5.40;3.60;;;;;;;;;;5013998;28;20562;-67
2022/07/18 01:59:49;;;;;;;7.23;3.80;;;;;;;;;;5014079;28;20458;-66
2022/07/18 02:02:15;;;;;;;3.10;2.97;;;;;;;;;;5013923;28;20424;-68
2022/07/18 02:04:59;;;;;;;3.80;3.43;;;;;;;;;;5013885;28;20408;-66
2022/07/18 02:07:33;;;;;;;6.93;3.43;;;;;;;;;;5013949;28;20401;-66
2022/07/18 02:09:59;;;;;;;6.93;3.97;;;;;;;;;;5013931;28;20415;-67
2022/07/18 02:12:25;;;;;;;4.73;3.57;;;;;;;;;;5013866;28;20434;-66
2022/07/18 02:14:51;;;;;;;3.57;3.47;;;;;;;;;;5013888;28;20903;-66
2022/07/18 02:17:19;;;;;;;8.63;3.23;;;;;;;;;;5013703;28;20521;-66
2022/07/18 02:19:45;;;;;;;3.83;3.73;;;;;;;;;;4996202;28;20419;-67
2022/07/18 02:22:10;;;;;;;4.13;3.70;;;;;;;;;;5013713;28;20416;-68
2022/07/18 02:24:37;;;;;;;3.73;3.50;;;;;;;;;;5013705;28;20409;-66
2022/07/18 02:27:03;;;;;;;4.43;4.07;;;;;;;;;;5013758;28;20405;-65
2022/07/18 02:29:29;;;;;;;4.37;4.07;;;;;;;;;;5013617;28;20412;-67
2022/07/18 02:31:55;;;;;;;3.93;3.53;;;;;;;;;;4996049;28;20420;-66
2022/07/18 02:34:21;;;;;;;6.87;3.33;;;;;;;;;;5013584;28;20460;-68
2022/07/18 02:36:49;;;;;;;3.77;3.50;;;;;;;;;;5013534;28;20482;-66
2022/07/18 02:39:15;;;;;;;4.03;3.80;;;;;;;;;;5013682;28;20773;-65
2022/07/18 02:41:41;;;;;;;5.87;3.70;;;;;;;;;;5013615;28;20908;-65
2022/07/18 02:44:07;;;;;;;3.60;3.30;;;;;;;;;;5013603;28;20414;-65
2022/07/18 02:46:33;;;;;;;6.00;4.03;;;;;;;;;;5013559;28;20503;-65
2022/07/18 02:48:59;;;;;;;3.77;3.53;;;;;;;;;;5013362;28;20499;-65
2022/07/18 02:51:27;;;;;;;6.30;3.33;;;;;;;;;;5013603;28;20514;-64
2022/07/18 02:53:53;;;;;;;3.53;3.43;;;;;;;;;;5013434;28;20421;-65
2022/07/18 02:56:19;;;;;;;3.43;3.13;;;;;;;;;;5013379;28;20965;-65
2022/07/18 02:58:45;;;;;;;3.70;3.53;;;;;;;;;;5015542;28;20415;-65
2022/07/18 03:01:11;;;;;;;7.60;4.47;;;;;;;;;;5017206;28;20898;-65
2022/07/18 03:03:37;;;;;;;5.97;4.07;;;;;;;;;;5017312;28;20461;-66
2022/07/18 03:06:03;;;;;;;9.37;3.57;;;;;;;;;;5017483;28;20418;-66
2022/07/18 03:08:29;;;;;;;3.33;3.23;;;;;;;;;;5017163;28;20782;-65
2022/07/18 03:10:55;;;;;;;3.53;3.33;;;;;;;;;;5017048;28;20403;-65
2022/07/18 03:13:21;;;;;;;4.43;3.00;;;;;;;;;;5017034;28;21013;-66
2022/07/18 03:15:47;;;;;;;4.13;3.73;;;;;;;;;;5016877;28;20472;-65
2022/07/18 03:18:13;;;;;;;3.53;3.40;;;;;;;;;;5017024;28;20469;-65
2022/07/18 03:20:39;;;;;;;4.77;4.50;;;;;;;;;;5016855;28;20906;-66
2022/07/18 03:23:06;;;;;;;12.17;4.30;;;;;;;;;;5016958;28;20411;-64
2022/07/18 03:25:32;;;;;;;4.20;4.00;;;;;;;;;;5016777;28;20546;-65
2022/07/18 03:27:58;;;;;;;4.23;3.73;;;;;;;;;;5016751;28;20415;-66
2022/07/18 03:30:24;;;;;;;4.40;4.07;;;;;;;;;;5016712;28;20414;-65
2022/07/18 03:32:50;;;;;;;6.75;3.30;;;;;;;;;;5016373;28;20445;-65
2022/07/18 03:35:16;;;;;;;4.80;4.37;;;;;;;;;;5016655;28;20172;-64
2022/07/18 03:37:42;;;;;;;3.70;3.50;;;;;;;;;;4998883;28;20913;-65
2022/07/18 03:40:08;;;;;;;4.57;4.37;;;;;;;;;;5016589;28;20435;-66
2022/07/18 03:42:37;;;;;;;4.00;3.90;;;;;;;;;;5016521;28;20415;-68
2022/07/18 03:45:03;;;;;;;6.07;3.50;;;;;;;;;;5016470;28;20483;-65
2022/07/18 03:47:29;;;;;;;4.00;3.70;;;;;;;;;;5016312;28;20418;-66
2022/07/18 03:49:55;;;;;;;5.03;3.87;;;;;;;;;;5016195;28;20477;-66
2022/07/18 03:52:21;;;;;;;5.53;4.20;;;;;;;;;;5016348;28;20418;-65
2022/07/18 03:54:47;;;;;;;15.13;5.70;;;;;;;;;;5016297;28;20422;-68
2022/07/18 03:57:13;;;;;;;8.40;7.60;;;;;;;;;;5016042;28;20529;-65
2022/07/18 03:59:39;;;;;;;19.90;15.80;;;;;;;;;;5016121;28;20404;-68
2022/07/18 04:02:05;;;;;;;6.10;5.60;;;;;;;;;;4998395;28;20534;-65
2022/07/18 04:04:31;;;;;;;4.80;4.60;;;;;;;;;;5016077;28;20419;-65
2022/07/18 04:06:59;;;;;;;4.17;3.97;;;;;;;;;;5016088;28;20976;-68
2022/07/18 04:09:25;;;;;;;3.80;3.50;;;;;;;;;;5015547;28;20490;-67
2022/07/18 04:11:51;;;;;;;4.50;4.20;;;;;;;;;;5015857;28;20418;-69
2022/07/18 04:14:17;;;;;;;7.40;3.77;;;;;;;;;;5015958;28;20417;-64
2022/07/18 04:16:43;;;;;;;4.27;4.07;;;;;;;;;;5015822;28;20513;-67
2022/07/18 04:19:10;;;;;;;4.20;3.60;;;;;;;;;;5016084;28;20485;-65
2022/07/18 04:21:36;;;;;;;53.03;14.13;;;;;;;;;;5015735;28;20426;-68
2022/07/18 04:24:02;;;;;;;11.40;5.33;;;;;;;;;;5015682;28;20477;-64
2022/07/18 04:26:28;;;;;;;14.97;6.20;;;;;;;;;;5015691;28;20420;-64
2022/07/18 04:28:54;;;;;;;71.47;29.67;;;;;;;;;;5015520;28;20463;-64
2022/07/18 04:31:20;;;;;;;4.67;4.43;;;;;;;;;;5015593;28;20782;-65
2022/07/18 04:33:46;;;;;;;3.70;3.60;;;;;;;;;;5015517;28;20891;-66
2022/07/18 04:36:12;;;;;;;3.97;3.63;;;;;;;;;;5015331;28;20497;-64
2022/07/18 04:38:38;;;;;;;4.40;3.93;;;;;;;;;;5015420;28;20407;-64
2022/07/18 04:41:05;;;;;;;3.90;3.53;;;;;;;;;;5015401;28;20434;-64
2022/07/18 04:43:31;;;;;;;4.13;3.93;;;;;;;;;;5015394;28;20430;-64
2022/07/18 04:45:57;;;;;;;4.83;4.20;;;;;;;;;;4997720;28;20606;-64
2022/07/18 04:48:23;;;;;;;4.20;3.90;;;;;;;;;;5015112;28;20579;-64
2022/07/18 04:50:49;;;;;;;4.10;3.90;;;;;;;;;;5015181;28;20775;-63
2022/07/18 04:53:15;;;;;;;5.10;4.60;;;;;;;;;;5015477;28;20416;-64
2022/07/18 04:55:41;;;;;;;4.47;4.10;;;;;;;;;;5014920;28;20885;-64
2022/07/18 04:58:07;;;;;;;5.70;4.10;;;;;;;;;;4997489;28;20439;-68
2022/07/18 05:00:33;;;;;;;4.63;3.93;;;;;;;;;;5015027;28;20925;-65
2022/07/18 05:02:59;;;;;;;6.60;3.93;;;;;;;;;;5014875;28;20485;-64
2022/07/18 05:05:26;;;;;;;3.60;3.60;;;;;;;;;;5014958;28;20440;-65
2022/07/18 05:07:53;;;;;;;3.47;3.37;;;;;;;;;;5014926;28;20471;-65
2022/07/18 05:10:20;;;;;;;4.40;3.90;;;;;;;;;;5014846;28;20430;-65
2022/07/18 05:12:47;;;;;;;3.83;3.63;;;;;;;;;;5014769;28;20406;-71
2022/07/18 05:15:15;;;;;;;4.37;3.63;;;;;;;;;;5014757;28;20957;-66
2022/07/18 05:17:41;;;;;;;5.27;4.07;;;;;;;;;;5014621;28;20475;-65
2022/07/18 05:20:09;;;;;;;4.97;3.87;;;;;;;;;;5014642;28;20407;-68
2022/07/18 05:22:36;;;;;;;6.53;3.60;;;;;;;;;;5013553;28;20417;-68
2022/07/18 05:25:03;;;;;;;3.57;3.30;;;;;;;;;;5014533;28;20474;-65
2022/07/18 05:27:29;;;;;;;3.40;3.30;;;;;;;;;;5014659;28;20409;-71
2022/07/18 05:29:55;;;;;;;6.03;3.50;;;;;;;;;;5014322;28;20473;-68
2022/07/18 05:32:21;;;;;;;3.60;3.50;;;;;;;;;;5014357;28;20468;-66
2022/07/18 05:34:47;;;;;;;3.87;3.63;;;;;;;;;;5014600;28;20415;-69
2022/07/18 05:37:13;;;;;;;5.00;3.40;;;;;;;;;;5014293;28;20483;-70
2022/07/18 05:39:39;;;;;;;3.97;3.80;;;;;;;;;;5014304;28;20412;-67
2022/07/18 05:42:06;;;;;;;6.40;3.50;;;;;;;;;;5014254;28;20423;-74
2022/07/18 05:44:32;;;;;;;3.77;3.50;;;;;;;;;;5014175;28;20416;-68
2022/07/18 05:46:58;;;;;;;5.03;4.60;;;;;;;;;;5014076;28;20519;-73
2022/07/18 05:49:24;;;;;;;4.33;3.87;;;;;;;;;;5013982;28;20504;-69
2022/07/18 05:51:50;;;;;;;4.80;4.50;;;;;;;;;;5014137;28;20788;-69
2022/07/18 05:54:19;;;;;;;4.47;4.17;;;;;;;;;;4996436;28;20493;-69
2022/07/18 05:56:51;;;;;;;4.60;4.03;;;;;;;;;;5013879;28;20827;-72
2022/07/18 05:59:18;;;;;;;4.30;4.00;;;;;;;;;;5013921;28;20417;-73
2022/07/18 06:01:44;;;;;;;3.87;3.70;;;;;;;;;;5013925;28;20463;-74
2022/07/18 06:04:10;;;;;;;11.87;3.37;;;;;;;;;;5013901;28;20444;-76
2022/07/18 06:06:36;;;;;;;3.90;3.60;;;;;;;;;;5013938;28;20418;-71
2022/07/18 06:09:03;;;;;;;5.30;3.30;;;;;;;;;;5013754;28;20402;-70
2022/07/18 06:11:29;;;;;;;3.10;2.87;;;;;;;;;;4996164;28;20817;-68
2022/07/18 06:13:55;;;;;;;7.77;3.53;;;;;;;;;;5013790;28;20397;-69
2022/07/18 06:16:21;;;;;;;3.23;3.07;;;;;;;;;;5013612;28;20521;-69
2022/07/18 06:18:47;;;;;;;3.10;3.00;;;;;;;;;;5013692;28;20421;-70
2022/07/18 06:21:13;;;;;;;3.50;3.30;;;;;;;;;;5013767;28;20910;-70
2022/07/18 06:23:40;;;;;;;2.70;2.60;;;;;;;;;;4995946;28;20929;-69
2022/07/18 06:26:06;;;;;;;3.63;3.00;;;;;;;;;;5013569;28;20776;-70
2022/07/18 06:28:32;;;;;;;2.53;2.53;;;;;;;;;;5013610;28;20982;-70
2022/07/18 06:30:58;;;;;;;3.33;2.90;;;;;;;;;;5013548;28;20411;-69
2022/07/18 06:33:24;;;;;;;2.93;2.63;;;;;;;;;;5015340;28;20443;-68
2022/07/18 06:35:50;;;;;;;4.87;3.23;;;;;;;;;;5017621;28;20505;-70
2022/07/18 06:38:16;;;;;;;3.77;3.57;;;;;;;;;;5017739;28;20448;-70
2022/07/18 06:40:43;;;;;;;2.97;2.77;;;;;;;;;;4999885;28;20420;-68
2022/07/18 06:43:09;;;;;;;5.10;3.10;;;;;;;;;;5017534;28;20422;-69
2022/07/18 06:45:36;;;;;;;2.60;2.50;;;;;;;;;;5017559;28;20437;-70
2022/07/18 06:48:02;;;;;;;6.73;2.93;;;;;;;;;;5017199;28;21049;-69
2022/07/18 06:50:28;;;;;;;4.20;2.50;;;;;;;;;;5017376;28;20898;-69
2022/07/18 06:52:54;;;;;;;3.90;3.23;;;;;;;;;;5017422;28;20416;-69
2022/07/18 06:55:20;;;;;;;2.80;2.63;;;;;;;;;;5017342;28;20887;-70
2022/07/18 06:57:46;;;;;;;3.70;3.00;;;;;;;;;;5017228;28;20477;-69
2022/07/18 07:00:14;;;;;;;3.47;2.93;;;;;;;;;;4999605;28;20418;-69
2022/07/18 07:02:41;;;;;;;5.23;3.50;;;;;;;;;;5017118;28;20453;-70
2022/07/18 07:05:07;;;;;;;3.23;3.10;;;;;;;;;;5017243;28;20489;-69
2022/07/18 07:07:33;;;;;;;3.60;3.40;;;;;;;;;;5017364;28;20429;-70
2022/07/18 07:09:59;;;;;;;3.77;3.57;;;;;;;;;;5016998;28;20414;-69
2022/07/18 07:12:25;;;;;;;2.90;2.80;;;;;;;;;;5017054;28;20413;-70
2022/07/18 07:14:51;;;;;;;3.00;3.00;;;;;;;;;;5017018;28;20449;-69
2022/07/18 07:17:17;;;;;;;3.43;3.13;;;;;;;;;;5016768;28;20480;-69
2022/07/18 07:19:43;;;;;;;3.50;3.17;;;;;;;;;;5016964;28;20406;-70
2022/07/18 07:22:09;;;;;;;3.20;2.90;;;;;;;;;;5016911;28;20417;-70
2022/07/18 07:24:36;;;;;;;4.50;2.83;;;;;;;;;;5016811;28;20411;-70
2022/07/18 07:27:02;;;;;;;2.77;2.60;;;;;;;;;;5016883;28;20416;-69
2022/07/18 07:29:28;;;;;;;3.10;2.90;;;;;;;;;;5016660;28;20410;-69
2022/07/18 07:31:55;;;;;;;3.30;3.00;;;;;;;;;;5016713;28;20780;-71
2022/07/18 07:34:21;;;;;;;2.83;2.70;;;;;;;;;;5016626;28;20403;-71
2022/07/18 07:36:47;;;;;;;4.83;3.13;;;;;;;;;;5016497;28;20495;-70
2022/07/18 07:39:13;;;;;;;3.03;2.93;;;;;;;;;;5016477;28;20783;-71
2022/07/18 07:41:39;;;;;;;2.87;2.60;;;;;;;;;;5016413;28;20412;-69
2022/07/18 07:44:05;;;;;;;6.80;2.60;;;;;;;;;;4998275;28;20431;-69
2022/07/18 07:46:31;;;;;;;3.13;2.93;;;;;;;;;;5015847;28;20903;-71
2022/07/18 07:48:57;;;;;;;12.20;2.90;;;;;;;;;;5016196;28;20469;-70
2022/07/18 07:51:23;;;;;;;3.07;2.70;;;;;;;;;;5016315;28;20433;-70
2022/07/18 07:53:49;;;;;;;3.00;2.80;;;;;;;;;;4998615;28;20450;-70
2022/07/18 07:56:18;;;;;;;2.73;2.60;;;;;;;;;;4998517;28;20850;-70
2022/07/18 07:58:45;;;;;;;2.90;2.63;;;;;;;;;;5016290;28;20410;-73
2022/07/18 08:01:11;;;;;;;5.10;3.03;;;;;;;;;;5016100;28;20427;-71
2022/07/18 08:03:37;;;;;;;3.13;2.83;;;;;;;;;;4998444;28;20455;-71
2022/07/18 08:06:04;;;;;;;2.27;2.17;;;;;;;;;;4998407;28;20822;-70
2022/07/18 08:08:30;;;;;;;2.87;2.60;;;;;;;;;;4998372;28;20448;-70
2022/07/18 08:10:56;;;;;;;3.00;2.90;;;;;;;;;;4998259;28;20805;-70
2022/07/18 08:13:22;;;;;;;4.47;2.50;;;;;;;;;;4998173;28;20423;-70
2022/07/18 08:15:48;;;;;;;2.73;2.50;;;;;;;;;;5015660;28;20432;-77
2022/07/18 08:18:14;;;;;;;2.93;2.70;;;;;;;;;;5015791;28;20478;-74
2022/07/18 08:20:40;;;;;;;3.90;2.63;;;;;;;;;;5015733;28;20405;-76
2022/07/18 08:23:07;;;;;;;3.07;2.87;;;;;;;;;;5015834;28;20448;-74
2022/07/18 08:25:35;;;;;;;5.90;2.60;;;;;;;;;;5015560;28;20399;-71
2022/07/18 08:28:01;;;;;;;3.03;2.53;;;;;;;;;;5015632;28;20935;-73
2022/07/18 08:30:28;;;;;;;2.50;2.30;;;;;;;;;;5015640;28;20408;-70
2022/07/18 08:32:54;;;;;;;3.60;2.53;;;;;;;;;;5015542;28;20417;-72
2022/07/18 08:35:20;;;;;;;2.80;2.70;;;;;;;;;;5015528;28;20419;-71
2022/07/18 08:37:46;;;;;;;2.90;2.80;;;;;;;;;;5015329;28;20471;-71
2022/07/18 08:40:12;;;;;;;4.97;3.10;;;;;;;;;;5015414;28;20401;-71
2022/07/18 08:42:39;;;;;;;2.87;2.10;;;;;;;;;;4997676;28;20416;-72
2022/07/18 08:45:05;;;;;;;3.17;2.97;;;;;;;;;;5015372;28;20417;-73
2022/07/18 08:47:31;;;;;;;2.70;2.70;;;;;;;;;;5015164;28;20492;-72
2022/07/18 08:49:58;;;;;;;4.47;2.60;;;;;;;;;;4997485;28;20813;-73
2022/07/18 08:52:24;;;;;;;2.47;2.27;;;;;;;;;;4997471;28;20533;-71
2022/07/18 08:54:50;;;;;;;2.30;2.10;;;;;;;;;;5014995;28;20421;-72
2022/07/18 08:57:17;;;;;;;2.87;2.40;;;;;;;;;;5015048;28;20515;-72
2022/07/18 08:59:43;;;;;;;2.60;2.60;;;;;;;;;;5014919;28;20410;-71
2022/07/18 09:02:09;;;;;;;6.33;2.47;;;;;;;;;;5014881;28;20826;-70
2022/07/18 09:04:36;;;;;;;4.33;2.47;;;;;;;;;;5014956;28;20562;-73
2022/07/18 09:07:03;;;;;;;4.33;2.70;;;;;;;;;;5015020;28;20477;-73
2022/07/18 09:09:29;;;;;;;5.13;2.43;;;;;;;;;;5014806;28;20532;-72
2022/07/18 09:11:56;;;;;;;2.97;2.87;;;;;;;;;;5014662;28;20402;-73
2022/07/18 09:14:44;;;;;;;4.20;2.40;;;;;;;;;;5014721;28;20468;-72
2022/07/18 09:17:23;;;;;;;2.40;2.20;;;;;;;;;;5014472;28;20478;-73
2022/07/18 09:19:58;;;;;;;3.00;2.90;;;;;;;;;;5014539;28;20557;-74
2022/07/18 09:22:25;;;;;;;3.60;3.10;;;;;;;;;;5014421;28;20419;-72
2022/07/18 09:24:53;;;;;;;2.57;2.37;;;;;;;;;;4996758;28;20434;-72
2022/07/18 09:27:31;;;;;;;5.60;2.50;;;;;;;;;;5014366;28;20406;-71
2022/07/18 09:30:06;;;;;;;2.43;2.40;;;;;;;;;;5014342;28;20417;-73
2022/07/18 09:32:32;;;;;;;10.80;3.33;;;;;;;;;;5014180;28;20418;-73
2022/07/18 09:35:04;;;;;;;2.53;2.27;;;;;;;;;;5014313;28;20554;-73
2022/07/18 09:37:31;;;;;;;3.00;2.67;;;;;;;;;;5014114;28;20561;-72
2022/07/18 09:40:14;;;;;;;4.73;2.80;;;;;;;;;;5014051;28;20420;-72
2022/07/18 09:42:41;;;;;;;5.73;2.57;;;;;;;;;;5014098;28;20496;-74
2022/07/18 09:45:07;;;;;;;2.77;2.50;;;;;;;;;;5014062;28;20409;-72
2022/07/18 09:47:48;;;;;;;6.47;2.80;;;;;;;;;;5013840;28;20923;-72
2022/07/18 09:50:22;;;;;;;3.90;2.70;;;;;;;;;;4996374;28;20474;-72
2022/07/18 09:52:58;;;;;;;2.80;2.57;;;;;;;;;;5013996;28;20927;-71
2022/07/18 09:55:25;;;;;;;2.60;2.50;;;;;;;;;;4996433;28;20768;-65
2022/07/18 09:58:01;;;;;;;2.53;2.33;;;;;;;;;;5013854;28;20475;-73
2022/07/18 10:00:31;;;;;;;7.23;2.10;;;;;;;;;;5013861;28;20451;-75
2022/07/18 10:02:58;;;;;;;4.73;2.23;;;;;;;;;;5013698;28;20978;-75
2022/07/18 10:05:26;;;;;;;2.97;2.10;;;;;;;;;;5013747;28;20410;-73
2022/07/18 10:07:52;;;;;;;4.80;2.30;;;;;;;;;;5013331;28;20513;-75
2022/07/18 10:10:19;;;;;;;3.03;2.20;;;;;;;;;;5013648;28;20409;-73
2022/07/18 10:12:45;;;;;;;6.60;2.40;;;;;;;;;;5013687;28;20415;-73
2022/07/18 10:15:11;;;;;;;2.30;2.20;;;;;;;;;;5013568;28;20405;-71
2022/07/18 10:17:37;;;;;;;3.80;2.57;;;;;;;;;;4995896;28;20472;-73
2022/07/18 10:20:04;;;;;;;6.40;2.30;;;;;;;;;;5013633;28;20412;-78
2022/07/18 10:22:31;;;;;;;2.03;1.80;;;;;;;;;;5013630;28;20424;-75
2022/07/18 10:24:57;;;;;;;2.47;2.37;;;;;;;;;;5013647;28;20751;-74
2022/07/18 10:27:24;;;;;;;2.53;2.33;;;;;;;;;;5013494;28;20448;-73
2022/07/18 10:30:09;;;;;;;2.50;2.37;;;;;;;;;;5013490;28;20441;-73
2022/07/18 10:32:35;;;;;;;4.80;2.20;;;;;;;;;;5013388;28;20420;-72
2022/07/18 10:35:01;;;;;;;2.00;1.90;;;;;;;;;;4995656;28;20450;-74
2022/07/18 10:37:33;;;;;;;2.13;2.10;;;;;;;;;;5013374;28;20468;-73
2022/07/18 10:40:18;;;;;;;3.90;1.93;;;;;;;;;;4995738;28;20428;-73
2022/07/18 10:42:44;;;;;;;3.83;2.40;;;;;;;;;;5013365;28;20409;-76
2022/07/18 10:45:43;;;;;;;2.57;2.20;;;;;;;;;;5013349;28;20846;-74
2022/07/18 10:48:28;;;;;;;1.87;1.77;;;;;;;;;;4995564;28;20481;-70
2022/07/18 10:51:03;;;;;;;2.30;2.10;;;;;;;;;;5013519;28;20412;-71
2022/07/18 10:53:47;;;;;;;9.30;2.00;;;;;;;;;;5013228;28;20409;-71
2022/07/18 10:56:13;;;;;;;2.20;2.00;;;;;;;;;;5013181;28;20473;-72
2022/07/18 10:58:42;;;;;;;6.57;1.90;;;;;;;;;;5013248;28;20501;-73
2022/07/18 11:01:15;;;;;;;4.30;2.20;;;;;;;;;;5013033;28;20409;-71
2022/07/18 11:03:41;;;;;;;2.73;2.13;;;;;;;;;;5013178;28;20420;-74
2022/07/18 11:06:07;;;;;;;2.07;2.00;;;;;;;;;;5013099;28;20409;-75
2022/07/18 11:08:33;;;;;;;2.17;2.17;;;;;;;;;;5013180;28;20789;-70
2022/07/18 11:11:01;;;;;;;2.50;2.30;;;;;;;;;;5013155;28;20416;-72
2022/07/18 11:13:37;;;;;;;3.60;2.03;;;;;;;;;;5013012;28;20397;-73
2022/07/18 11:16:22;;;;;;;3.03;2.60;;;;;;;;;;5012956;28;20456;-74
2022/07/18 11:18:50;;;;;;;2.27;1.77;;;;;;;;;;4995977;28;20530;-73
2022/07/18 11:21:23;;;;;;;2.80;1.80;;;;;;;;;;5016754;28;20437;-75
2022/07/18 11:23:50;;;;;;;1.90;1.80;;;;;;;;;;5016683;28;20416;-71
2022/07/18 11:26:20;;;;;;;5.90;2.20;;;;;;;;;;5016597;28;20403;-74
2022/07/18 11:28:48;;;;;;;3.33;2.03;;;;;;;;;;5016624;28;20409;-73
2022/07/18 11:31:15;;;;;;;3.87;2.20;;;;;;;;;;5016507;28;20401;-71
2022/07/18 11:33:44;;;;;;;3.00;1.97;;;;;;;;;;4998944;28;20762;-69
2022/07/18 11:36:11;;;;;;;2.37;2.10;;;;;;;;;;4998796;28;20468;-72
2022/07/18 11:38:38;;;;;;;3.73;2.20;;;;;;;;;;5016339;28;20420;-73
2022/07/18 11:41:05;;;;;;;2.77;2.07;;;;;;;;;;5016348;28;20412;-72
2022/07/18 11:43:31;;;;;;;1.90;1.80;;;;;;;;;;5016302;28;20410;-72
2022/07/18 11:46:00;;;;;;;2.03;2.03;;;;;;;;;;5016210;28;20409;-73
2022/07/18 11:48:26;;;;;;;8.93;1.83;;;;;;;;;;5016148;28;20473;-72
2022/07/18 11:50:52;;;;;;;1.90;1.90;;;;;;;;;;5016150;28;20452;-73
2022/07/18 11:53:18;;;;;;;1.87;1.77;;;;;;;;;;5016187;28;20499;-73
2022/07/18 11:55:44;;;;;;;4.20;1.90;;;;;;;;;;4998356;28;20186;-75
2022/07/18 11:58:11;;;;;;;2.00;1.90;;;;;;;;;;5016091;28;20467;-73
2022/07/18 12:00:38;;;;;;;5.80;1.90;;;;;;;;;;5016086;28;20417;-72
2022/07/18 12:03:14;;;;;;;2.40;1.90;;;;;;;;;;5015958;28;20516;-75
2022/07/18 12:05:41;;;;;;;2.10;2.00;;;;;;;;;;5016035;28;20416;-74
2022/07/18 12:08:26;;;;;;;3.70;1.80;;;;;;;;;;5015889;28;20439;-75
2022/07/18 12:11:11;;;;;;;2.43;2.33;;;;;;;;;;5015970;28;20409;-73
2022/07/18 12:13:40;;;;;;;3.90;2.03;;;;;;;;;;5015820;28;20403;-70
2022/07/18 12:16:06;;;;;;;4.27;2.40;;;;;;;;;;4998154;28;20826;-69
2022/07/18 12:18:32;;;;;;;2.63;2.50;;;;;;;;;;5015657;28;20420;-68
2022/07/18 12:21:10;;;;;;;1.77;1.77;;;;;;;;;;5015580;28;20397;-68
2022/07/18 12:23:36;;;;;;;1.83;1.73;;;;;;;;;;5015665;28;20406;-68
2022/07/18 12:26:02;;;;;;;10.70;1.97;;;;;;;;;;5015512;28;20424;-69
2022/07/18 12:28:28;;;;;;;2.00;1.90;;;;;;;;;;5015465;28;20436;-68
2022/07/18 12:30:55;;;;;;;1.90;1.60;;;;;;;;;;5014994;28;20900;-69
2022/07/18 12:33:21;;;;;;;1.77;1.73;;;;;;;;;;5015337;28;20417;-68
2022/07/18 12:35:55;;;;;;;3.00;1.70;;;;;;;;;;5015307;28;20405;-70
2022/07/18 12:38:21;;;;;;;1.77;1.77;;;;;;;;;;5015359;28;20818;-69
2022/07/18 12:40:52;;;;;;;1.80;1.70;;;;;;;;;;5015260;28;20447;-69
2022/07/18 12:43:31;;;;;;;2.50;1.67;;;;;;;;;;5015244;28;20409;-70
2022/07/18 12:45:59;;;;;;;1.60;1.60;;;;;;;;;;5015180;28;20955;-68
2022/07/18 12:48:27;;;;;;;1.60;1.50;;;;;;;;;;5014880;28;20496;-70
2022/07/18 12:51:00;;;;;;;1.60;1.50;;;;;;;;;;5015067;28;20426;-69
2022/07/18 12:53:27;;;;;;;1.70;1.70;;;;;;;;;;5015160;28;20417;-70
2022/07/18 12:55:54;;;;;;;2.10;1.70;;;;;;;;;;5014888;28;20432;-69
2022/07/18 12:58:20;;;;;;;5.03;1.83;;;;;;;;;;5014964;28;20409;-70
2022/07/18 13:00:46;;;;;;;1.90;1.90;;;;;;;;;;5014843;28;20405;-71
2022/07/18 13:03:12;;;;;;;3.67;1.50;;;;;;;;;;5014870;28;20420;-70
2022/07/18 13:05:38;;;;;;;1.97;1.90;;;;;;;;;;5014738;28;20566;-71
2022/07/18 13:08:06;;;;;;;4.53;1.60;;;;;;;;;;5014806;28;20479;-70
2022/07/18 13:10:32;;;;;;;1.87;1.77;;;;;;;;;;5015030;28;20566;-71
2022/07/18 13:12:58;;;;;;;2.23;1.60;;;;;;;;;;5015023;28;20410;-72
2022/07/18 13:15:24;;;;;;;2.87;1.77;;;;;;;;;;5014561;28;20568;-70
2022/07/18 13:17:50;;;;;;;1.97;1.90;;;;;;;;;;5014546;28;20508;-71
2022/07/18 13:20:17;;;;;;;2.30;1.33;;;;;;;;;;5014606;28;20413;-71
2022/07/18 13:22:43;;;;;;;3.70;2.00;;;;;;;;;;5014551;28;20479;-71
2022/07/18 13:25:09;;;;;;;2.93;1.97;;;;;;;;;;5014499;28;20417;-71
2022/07/18 13:27:36;;;;;;;3.57;1.70;;;;;;;;;;5014876;28;20417;-70
2022/07/18 13:30:02;;;;;;;1.60;1.60;;;;;;;;;;5014512;28;20463;-70
2022/07/18 13:32:28;;;;;;;1.63;1.63;;;;;;;;;;5014336;28;20417;-70
2022/07/18 13:34:54;;;;;;;1.73;1.73;;;;;;;;;;5014480;28;20500;-72
2022/07/18 13:37:20;;;;;;;1.97;1.80;;;;;;;;;;4996684;28;20479;-70
2022/07/18 13:39:46;;;;;;;4.43;1.70;;;;;;;;;;5014484;28;20405;-71
2022/07/18 13:42:12;;;;;;;1.40;1.40;;;;;;;;;;5013745;28;20401;-73
2022/07/18 13:44:38;;;;;;;2.43;2.10;;;;;;;;;;4996402;28;20420;-69
2022/07/18 13:47:04;;;;;;;2.07;1.97;;;;;;;;;;5014234;28;20459;-68
2022/07/18 13:49:30;;;;;;;4.93;1.70;;;;;;;;;;5014055;28;20222;-69
2022/07/18 13:51:56;;;;;;;3.00;1.60;;;;;;;;;;5014225;28;20417;-69
2022/07/18 13:54:23;;;;;;;4.30;1.93;;;;;;;;;;5014193;28;20777;-68
2022/07/18 13:56:49;;;;;;;1.73;1.73;;;;;;;;;;5013975;28;20456;-69
2022/07/18 13:59:15;;;;;;;5.90;1.87;;;;;;;;;;5014154;28;20511;-69
2022/07/18 14:01:41;;;;;;;1.80;1.70;;;;;;;;;;5014015;28;20919;-69
2022/07/18 14:04:07;;;;;;;4.70;1.63;;;;;;;;;;5014059;28;20260;-70
2022/07/18 14:06:35;;;;;;;5.10;1.67;;;;;;;;;;5014093;28;20741;-69
2022/07/18 14:09:01;;;;;;;2.00;1.90;;;;;;;;;;5014191;28;20407;-69
2022/07/18 14:11:27;;;;;;;3.63;1.73;;;;;;;;;;4996273;28;20515;-68
2022/07/18 14:13:53;;;;;;;1.90;1.77;;;;;;;;;;4996329;28;20432;-71
2022/07/18 14:16:19;;;;;;;2.30;2.10;;;;;;;;;;5013745;28;20538;-70
2022/07/18 14:18:45;;;;;;;1.97;1.87;;;;;;;;;;5013899;28;20751;-69
2022/07/18 14:21:11;;;;;;;2.13;2.03;;;;;;;;;;5013769;28;20393;-72
2022/07/18 14:23:37;;;;;;;2.27;2.17;;;;;;;;;;5013776;28;20955;-69
2022/07/18 14:26:03;;;;;;;2.20;1.90;;;;;;;;;;5013787;28;20409;-68
2022/07/18 14:28:29;;;;;;;2.70;2.20;;;;;;;;;;5013677;28;20577;-69
2022/07/18 14:30:55;;;;;;;2.43;1.60;;;;;;;;;;5013730;28;20459;-71
2022/07/18 14:33:21;;;;;;;3.63;1.97;;;;;;;;;;4996007;28;20641;-70
2022/07/18 14:35:47;;;;;;;1.90;1.80;;;;;;;;;;5013529;28;20428;-70
2022/07/18 14:38:13;;;;;;;2.13;2.13;;;;;;;;;;5013472;28;20249;-69
2022/07/18 14:40:39;;;;;;;2.10;2.00;;;;;;;;;;5013610;28;20905;-69
2022/07/18 14:43:05;;;;;;;1.97;1.87;;;;;;;;;;5013563;28;21015;-69
2022/07/18 14:45:30;;;;;;;1.87;1.87;;;;;;;;;;5013463;28;20535;-68
2022/07/18 14:47:56;;;;;;;3.03;1.67;;;;;;;;;;5013254;28;20225;-68